createdAt,value
2022-10-23T00:01:22.911Z,91.74
2022-10-23T00:03:55.093Z,91.79
2022-10-23T00:06:21.888Z,91.62
2022-10-23T00:08:49.580Z,91.48
2022-10-23T00:11:19.560Z,91.83
2022-10-23T00:13:47.004Z,91.57
2022-10-23T00:16:13.968Z,91.77
2022-10-23T00:18:41.206Z,91.84
2022-10-23T00:21:10.444Z,91.83
2022-10-23T00:23:36.954Z,91.98
2022-10-23T00:26:04.449Z,91.96
2022-10-23T00:28:31.283Z,91.98
2022-10-23T00:30:57.703Z,91.87
2022-10-23T00:33:24.174Z,92.11
2022-10-23T00:35:50.589Z,91.92
2022-10-23T00:38:17.025Z,91.91
2022-10-23T00:40:45.282Z,91.96
2022-10-23T00:43:21.709Z,92.20
2022-10-23T00:45:48.501Z,92.00
2022-10-23T00:48:16.025Z,91.97
2022-10-23T00:50:43.229Z,91.81
2022-10-23T00:53:11.748Z,91.74
2022-10-23T00:55:39.424Z,91.92
2022-10-23T00:58:05.982Z,92.10
2022-10-23T01:00:46.891Z,91.84
2022-10-23T01:03:16.642Z,92.09
2022-10-23T01:08:30.215Z,92.02
2022-10-23T01:11:31.250Z,91.84
2022-10-23T01:14:12.135Z,92.08
2022-10-23T01:17:00.446Z,92.11
2022-10-23T01:20:04.257Z,92.41
2022-10-23T01:22:49.042Z,92.28
2022-10-23T01:25:24.502Z,91.88
2022-10-23T01:27:56.218Z,92.25
2022-10-23T01:30:22.780Z,92.18
2022-10-23T01:33:05.236Z,92.46
2022-10-23T01:35:54.961Z,92.77
2022-10-23T01:38:35.744Z,92.81
2022-10-23T01:41:28.710Z,92.71
2022-10-23T01:44:16.707Z,92.29
2022-10-23T01:46:46.871Z,92.57
2022-10-23T01:49:15.058Z,92.66
2022-10-23T01:51:46.364Z,92.49
2022-10-23T01:54:15.519Z,92.42
2022-10-23T01:56:45.144Z,92.29
2022-10-23T01:59:21.448Z,92.46
2022-10-23T02:01:51.586Z,92.29
2022-10-23T02:04:24.146Z,92.55
2022-10-23T02:06:50.888Z,92.35
2022-10-23T02:09:17.385Z,92.17
2022-10-23T02:11:57.985Z,92.40
2022-10-23T02:14:34.598Z,92.54
2022-10-23T02:17:12.705Z,92.28
2022-10-23T02:19:43.997Z,92.32
2022-10-23T02:22:13.137Z,92.33
2022-10-23T02:24:49.128Z,92.90
2022-10-23T02:27:21.983Z,92.56
2022-10-23T02:29:52.213Z,92.54
2022-10-23T02:32:22.265Z,92.24
2022-10-23T02:34:48.710Z,92.36
2022-10-23T02:37:15.811Z,92.43
2022-10-23T02:39:42.328Z,92.74
2022-10-23T02:42:28.703Z,92.68
2022-10-23T02:45:30.841Z,92.85
2022-10-23T02:48:19.291Z,93.00
2022-10-23T02:51:14.860Z,92.82
2022-10-23T02:53:53.635Z,93.22
2022-10-23T02:56:28.910Z,93.22
2022-10-23T02:59:11.600Z,93.09
2022-10-23T03:01:51.111Z,92.97
2022-10-23T03:04:19.797Z,93.28
2022-10-23T03:06:46.558Z,93.26
2022-10-23T03:09:13.089Z,93.17
2022-10-23T03:11:39.552Z,93.79
2022-10-23T03:14:06.455Z,94.39
2022-10-23T03:16:32.867Z,94.39
2022-10-23T03:18:59.358Z,95.00
2022-10-23T03:21:25.842Z,95.48
2022-10-23T03:23:52.305Z,96.14
2022-10-23T03:26:18.697Z,96.35
2022-10-23T03:28:45.147Z,96.99
2022-10-23T03:31:11.677Z,96.97
2022-10-23T03:33:38.252Z,97.12
2022-10-23T03:36:05.899Z,97.63
2022-10-23T03:38:32.642Z,97.57
2022-10-23T03:40:59.115Z,97.43
2022-10-23T03:43:25.555Z,97.88
2022-10-23T03:45:52.194Z,97.52
2022-10-23T03:48:18.614Z,97.48
2022-10-23T03:50:44.992Z,97.33
2022-10-23T03:53:11.441Z,97.14
2022-10-23T03:55:37.910Z,97.13
2022-10-23T03:58:04.362Z,97.24
2022-10-23T04:00:30.897Z,97.42
2022-10-23T04:02:57.400Z,97.17
2022-10-23T04:05:23.771Z,97.06
2022-10-23T04:07:50.173Z,97.03
2022-10-23T04:10:16.661Z,97.21
2022-10-23T04:12:43.144Z,97.15
2022-10-23T04:15:10.163Z,96.73
2022-10-23T04:17:36.593Z,97.12
2022-10-23T04:20:03.397Z,96.92
2022-10-23T04:22:29.899Z,96.91
2022-10-23T04:24:56.320Z,97.01
2022-10-23T04:27:22.811Z,96.79
2022-10-23T04:29:49.383Z,96.98
2022-10-23T04:32:16.047Z,96.44
2022-10-23T04:34:42.489Z,96.71
2022-10-23T04:37:08.909Z,96.27
2022-10-23T04:39:35.399Z,96.57
2022-10-23T04:42:01.819Z,96.86
2022-10-23T04:44:28.272Z,96.68
2022-10-23T04:46:54.663Z,96.70
2022-10-23T04:49:21.240Z,96.41
2022-10-23T04:51:47.680Z,96.62
2022-10-23T04:54:14.136Z,97.02
2022-10-23T04:56:40.628Z,97.00
2022-10-23T04:59:07.188Z,96.86
2022-10-23T05:01:33.697Z,97.17
2022-10-23T05:04:00.211Z,97.29
2022-10-23T05:06:26.785Z,97.74
2022-10-23T05:08:53.297Z,97.73
2022-10-23T05:11:19.759Z,97.63
2022-10-23T05:13:46.225Z,97.86
2022-10-23T05:16:27.397Z,98.05
2022-10-23T05:18:54.151Z,98.19
2022-10-23T05:21:26.421Z,98.25
2022-10-23T05:23:53.902Z,98.43
2022-10-23T05:26:22.400Z,98.43
2022-10-23T05:28:49.478Z,98.93
2022-10-23T05:31:16.172Z,99.26
2022-10-23T05:33:42.730Z,99.34
2022-10-23T05:36:09.649Z,99.74
2022-10-23T05:38:36.276Z,99.53
2022-10-23T05:41:03.187Z,100.00
2022-10-23T05:43:31.239Z,100.00
2022-10-23T05:45:58.691Z,100.00
2022-10-23T05:48:36.285Z,100.00
2022-10-23T05:51:04.617Z,100.00
2022-10-23T05:53:31.078Z,100.00
2022-10-23T05:56:02.964Z,100.00
2022-10-23T05:58:29.356Z,100.00
2022-10-23T06:00:55.988Z,100.00
2022-10-23T06:03:22.476Z,100.00
2022-10-23T06:05:50.578Z,100.00
2022-10-23T06:08:17.584Z,100.00
2022-10-23T06:10:44.191Z,100.00
2022-10-23T06:13:10.680Z,100.00
2022-10-23T06:15:37.177Z,100.00
2022-10-23T06:18:05.128Z,100.00
2022-10-23T06:20:31.670Z,100.00
2022-10-23T06:22:58.203Z,100.00
2022-10-23T06:25:24.637Z,100.00
2022-10-23T06:27:51.389Z,100.00
2022-10-23T06:30:17.931Z,100.00
2022-10-23T06:32:44.586Z,100.00
2022-10-23T06:35:11.489Z,100.00
2022-10-23T06:37:38.049Z,100.00
2022-10-23T06:40:05.711Z,100.00
2022-10-23T06:42:32.201Z,100.00
2022-10-23T06:45:00.397Z,100.00
2022-10-23T06:47:29.629Z,100.00
2022-10-23T06:49:56.053Z,100.00
2022-10-23T06:52:45.280Z,100.00
2022-10-23T06:55:09.395Z,100.00
2022-10-23T06:57:35.882Z,100.00
2022-10-23T07:00:02.323Z,100.00
2022-10-23T07:02:28.779Z,100.00
2022-10-23T07:04:55.192Z,100.00
2022-10-23T07:07:21.613Z,100.00
2022-10-23T07:09:48.072Z,100.00
2022-10-23T07:12:14.505Z,100.00
2022-10-23T07:14:40.951Z,100.00
2022-10-23T07:17:07.421Z,100.00
2022-10-23T07:19:33.859Z,100.00
2022-10-23T07:22:00.327Z,100.00
2022-10-23T07:24:27.585Z,100.00
2022-10-23T07:26:54.051Z,100.00
2022-10-23T07:29:20.461Z,100.00
2022-10-23T07:31:46.887Z,100.00
2022-10-23T07:34:13.371Z,100.00
2022-10-23T07:36:39.833Z,100.00
2022-10-23T07:39:06.388Z,100.00
2022-10-23T07:41:32.843Z,100.00
2022-10-23T07:43:59.291Z,100.00
2022-10-23T07:46:25.799Z,100.00
2022-10-23T07:48:52.266Z,100.00
2022-10-23T07:51:18.759Z,100.00
2022-10-23T07:53:45.697Z,100.00
2022-10-23T07:56:18.098Z,100.00
2022-10-23T07:58:44.661Z,100.00
2022-10-23T08:01:17.352Z,100.00
2022-10-23T08:03:44.047Z,100.00
2022-10-23T08:06:10.597Z,100.00
2022-10-23T08:08:37.170Z,100.00
2022-10-23T08:11:03.710Z,100.00
2022-10-23T08:13:30.165Z,100.00
2022-10-23T08:15:56.858Z,100.00
2022-10-23T08:18:23.346Z,100.00
2022-10-23T08:20:52.409Z,100.00
2022-10-23T08:23:19.725Z,100.00
2022-10-23T08:25:46.943Z,100.00
2022-10-23T08:28:13.476Z,100.00
2022-10-23T08:30:39.891Z,100.00
2022-10-23T08:33:07.390Z,100.00
2022-10-23T08:35:37.768Z,100.00
2022-10-23T08:38:05.064Z,100.00
2022-10-23T08:40:31.726Z,100.00
2022-10-23T08:43:18.919Z,100.00
2022-10-23T08:45:58.482Z,100.00
2022-10-23T08:48:38.391Z,100.00
2022-10-23T08:51:14.149Z,100.00
2022-10-23T08:53:52.640Z,100.00
2022-10-23T08:56:28.774Z,100.00
2022-10-23T08:59:09.533Z,100.00
2022-10-23T09:01:43.010Z,100.00
2022-10-23T09:04:15.278Z,100.00
2022-10-23T09:06:54.655Z,100.00
2022-10-23T09:09:39.616Z,100.00
2022-10-23T09:12:13.380Z,100.00
2022-10-23T09:14:55.026Z,100.00
2022-10-23T09:17:25.801Z,100.00
2022-10-23T09:20:27.212Z,100.00
2022-10-23T09:23:12.669Z,100.00
2022-10-23T09:25:41.400Z,100.00
2022-10-23T09:28:18.851Z,100.00
2022-10-23T09:30:45.707Z,100.00
2022-10-23T09:33:22.238Z,100.00
2022-10-23T09:35:54.903Z,100.00
2022-10-23T09:38:47.406Z,100.00
2022-10-23T09:41:20.677Z,100.00
2022-10-23T09:43:47.750Z,100.00
2022-10-23T09:46:14.251Z,100.00
2022-10-23T09:48:42.472Z,100.00
2022-10-23T09:51:21.403Z,100.00
2022-10-23T09:53:59.955Z,100.00
2022-10-23T09:56:33.312Z,100.00
2022-10-23T09:59:03.371Z,100.00
2022-10-23T10:01:33.715Z,100.00
2022-10-23T10:04:00.277Z,100.00
2022-10-23T10:06:30.719Z,100.00
2022-10-23T10:09:00.320Z,100.00
2022-10-23T10:11:54.190Z,100.00
2022-10-23T10:14:42.504Z,100.00
2022-10-23T10:17:16.554Z,100.00
2022-10-23T10:20:03.956Z,100.00
2022-10-23T10:22:47.268Z,100.00
2022-10-23T10:25:42.154Z,99.49
2022-10-23T10:28:23.838Z,99.16
2022-10-23T10:31:15.366Z,98.92
2022-10-23T10:33:50.481Z,99.04
2022-10-23T10:36:39.227Z,98.67
2022-10-23T10:39:17.356Z,98.69
2022-10-23T10:41:58.166Z,98.28
2022-10-23T10:44:57.160Z,98.04
2022-10-23T10:47:39.366Z,97.54
2022-10-23T10:50:28.680Z,97.65
2022-10-23T10:53:01.167Z,97.47
2022-10-23T10:55:37.636Z,97.53
2022-10-23T10:58:27.810Z,96.98
2022-10-23T11:01:01.853Z,97.11
2022-10-23T11:03:40.263Z,96.74
2022-10-23T11:06:15.034Z,96.65
2022-10-23T11:08:56.254Z,96.22
2022-10-23T11:11:31.008Z,96.26
2022-10-23T11:13:57.753Z,96.34
2022-10-23T11:16:31.297Z,96.02
2022-10-23T11:19:11.287Z,95.92
2022-10-23T11:21:47.561Z,95.73
2022-10-23T11:24:40.678Z,95.40
2022-10-23T11:27:46.360Z,95.45
2022-10-23T11:30:28.549Z,95.37
2022-10-23T11:33:01.125Z,95.26
2022-10-23T11:35:53.513Z,95.17
2022-10-23T11:38:35.619Z,94.74
2022-10-23T11:41:16.427Z,94.77
2022-10-23T11:44:06.366Z,94.56
2022-10-23T11:46:35.677Z,93.90
2022-10-23T11:49:05.920Z,93.01
2022-10-23T11:51:37.967Z,92.96
2022-10-23T11:54:13.642Z,92.14
2022-10-23T11:57:10.550Z,91.51
2022-10-23T11:59:49.486Z,90.93
2022-10-23T12:02:32.915Z,90.29
2022-10-23T12:05:06.964Z,90.00
2022-10-23T12:07:37.546Z,89.33
2022-10-23T12:10:19.232Z,88.92
2022-10-23T12:12:57.367Z,88.25
2022-10-23T12:15:25.890Z,87.59
2022-10-23T12:17:54.804Z,87.28
2022-10-23T12:20:38.217Z,87.67
2022-10-23T12:23:20.704Z,87.97
2022-10-23T12:26:08.698Z,87.25
2022-10-23T12:28:58.760Z,86.94
2022-10-23T12:31:49.070Z,86.55
2022-10-23T12:34:36.837Z,86.01
2022-10-23T12:37:09.246Z,85.85
2022-10-23T12:39:39.400Z,85.67
2022-10-23T12:42:21.294Z,85.80
2022-10-23T12:45:01.779Z,85.64
2022-10-23T12:47:29.883Z,85.22
2022-10-23T12:49:56.421Z,85.31
2022-10-23T12:52:25.231Z,85.17
2022-10-23T12:54:52.106Z,85.28
2022-10-23T12:57:28.084Z,85.15
2022-10-23T13:00:02.978Z,85.17
2022-10-23T13:02:31.838Z,85.00
2022-10-23T13:05:01.169Z,84.97
2022-10-23T13:07:31.447Z,84.94
2022-10-23T13:09:59.001Z,84.76
2022-10-23T13:12:32.660Z,84.76
2022-10-23T13:15:03.434Z,84.85
2022-10-23T13:17:57.395Z,85.14
2022-10-23T13:20:26.508Z,84.24
2022-10-23T13:23:09.711Z,84.52
2022-10-23T13:25:38.075Z,84.06
2022-10-23T13:28:07.589Z,84.13
2022-10-23T13:30:42.710Z,84.07
2022-10-23T13:33:21.329Z,83.75
2022-10-23T13:36:17.528Z,84.16
2022-10-23T13:38:46.247Z,83.57
2022-10-23T13:41:13.901Z,83.53
2022-10-23T13:43:41.209Z,83.47
2022-10-23T13:46:14.754Z,83.62
2022-10-23T13:48:41.195Z,83.24
2022-10-23T13:51:21.931Z,83.27
2022-10-23T13:53:49.134Z,82.97
2022-10-23T13:56:18.157Z,83.03
2022-10-23T13:58:44.876Z,82.84
2022-10-23T14:01:27.373Z,83.09
2022-10-23T14:03:55.127Z,82.34
2022-10-23T14:06:22.012Z,82.33
2022-10-23T14:08:48.508Z,82.66
2022-10-23T14:11:16.882Z,82.46
2022-10-23T14:13:43.397Z,82.73
2022-10-23T14:16:12.797Z,82.74
2022-10-23T14:18:39.710Z,82.48
2022-10-23T14:21:10.600Z,82.46
2022-10-23T14:23:37.080Z,81.96
2022-10-23T14:26:11.224Z,82.07
2022-10-23T14:28:38.032Z,82.06
2022-10-23T14:31:15.963Z,81.98
2022-10-23T14:33:43.356Z,81.76
2022-10-23T14:36:10.434Z,81.20
2022-10-23T14:38:37.259Z,81.29
2022-10-23T14:41:10.602Z,80.91
2022-10-23T14:43:37.199Z,80.93
2022-10-23T14:46:15.423Z,81.29
2022-10-23T14:48:46.058Z,81.20
2022-10-23T14:51:20.579Z,81.49
2022-10-23T14:53:48.095Z,81.67
2022-10-23T14:56:15.514Z,81.64
2022-10-23T14:58:43.305Z,81.81
2022-10-23T15:01:10.775Z,81.69
2022-10-23T15:03:37.860Z,81.92
2022-10-23T15:06:05.841Z,81.63
2022-10-23T15:08:32.615Z,81.78
2022-10-23T15:11:05.702Z,81.84
2022-10-23T15:13:34.217Z,81.90
2022-10-23T15:16:09.376Z,82.23
2022-10-23T15:21:06.900Z,82.83
2022-10-23T15:23:38.389Z,83.03
2022-10-23T15:26:07.681Z,83.45
2022-10-23T15:28:35.074Z,83.45
2022-10-23T15:31:02.304Z,83.61
2022-10-23T15:33:29.279Z,83.86
2022-10-23T15:35:56.513Z,84.07
2022-10-23T15:38:23.860Z,84.20
2022-10-23T15:40:50.310Z,84.08
2022-10-23T15:43:17.186Z,84.52
2022-10-23T15:45:43.742Z,84.68
2022-10-23T15:48:10.193Z,84.93
2022-10-23T15:50:37.139Z,84.99
2022-10-23T15:53:03.806Z,85.08
2022-10-23T15:55:30.265Z,85.17
2022-10-23T15:58:01.841Z,85.33
2022-10-23T16:00:28.428Z,85.59
2022-10-23T16:02:54.861Z,85.49
2022-10-23T16:05:21.317Z,85.42
2022-10-23T16:07:47.772Z,85.60
2022-10-23T16:10:14.207Z,85.84
2022-10-23T16:12:40.751Z,85.90
2022-10-23T16:15:08.282Z,85.97
2022-10-23T16:17:34.731Z,85.97
2022-10-23T16:20:01.161Z,86.17
2022-10-23T16:22:27.852Z,86.16
2022-10-23T16:24:54.386Z,86.45
2022-10-23T16:27:20.832Z,86.34
2022-10-23T16:29:47.367Z,86.50
2022-10-23T16:32:13.774Z,86.39
2022-10-23T16:34:40.208Z,86.55
2022-10-23T16:37:06.740Z,86.64
2022-10-23T16:39:33.918Z,86.68
2022-10-23T16:42:00.341Z,86.71
2022-10-23T16:44:26.860Z,86.65
2022-10-23T16:46:53.385Z,86.73
2022-10-23T16:49:20.038Z,87.03
2022-10-23T16:51:46.579Z,86.88
2022-10-23T16:54:14.603Z,86.99
2022-10-23T16:56:41.146Z,87.15
2022-10-23T16:59:07.565Z,87.22
2022-10-23T17:01:34.128Z,87.15
2022-10-23T17:04:00.885Z,87.19
2022-10-23T17:06:32.197Z,87.25
2022-10-23T17:09:00.087Z,87.33
2022-10-23T17:11:29.631Z,87.22
2022-10-23T17:14:02.501Z,87.25
2022-10-23T17:16:36.763Z,87.54
2022-10-23T17:19:15.934Z,87.19
2022-10-23T17:21:52.805Z,87.37
2022-10-23T17:24:19.449Z,87.53
2022-10-23T17:26:46.542Z,87.40
2022-10-23T17:29:15.127Z,87.35
2022-10-23T17:31:45.282Z,87.43
2022-10-23T17:34:14.453Z,87.07
2022-10-23T17:36:44.857Z,87.29
2022-10-23T17:39:13.614Z,87.29
2022-10-23T17:41:40.960Z,87.38
2022-10-23T17:44:07.458Z,87.35
2022-10-23T17:46:34.051Z,87.20
2022-10-23T17:49:03.676Z,87.23
2022-10-23T17:51:33.240Z,87.14
2022-10-23T17:54:02.083Z,87.20
2022-10-23T17:56:31.196Z,87.29
2022-10-23T17:59:03.700Z,87.78
2022-10-23T18:01:31.604Z,87.64
2022-10-23T18:04:01.658Z,87.75
2022-10-23T18:06:32.241Z,87.61
2022-10-23T18:09:00.234Z,87.68
2022-10-23T18:11:32.722Z,87.55
2022-10-23T18:16:31.461Z,87.44
2022-10-23T18:19:00.193Z,87.57
2022-10-23T18:21:27.034Z,87.69
2022-10-23T18:23:53.674Z,87.84
2022-10-23T18:26:25.962Z,87.67
2022-10-23T18:28:56.879Z,87.58
2022-10-23T18:31:25.260Z,87.50
2022-10-23T18:34:04.184Z,87.55
2022-10-23T18:36:33.187Z,87.45
2022-10-23T18:38:59.806Z,87.51
2022-10-23T18:41:26.668Z,87.77
2022-10-23T18:43:53.790Z,87.56
2022-10-23T18:46:21.091Z,87.45
2022-10-23T18:48:50.554Z,87.49
2022-10-23T18:51:24.174Z,87.75
2022-10-23T18:53:51.605Z,87.82
2022-10-23T18:56:23.793Z,87.92
2022-10-23T18:58:52.161Z,88.08
2022-10-23T19:01:20.058Z,88.04
2022-10-23T19:03:47.337Z,88.08
2022-10-23T19:06:14.661Z,88.17
2022-10-23T19:08:43.250Z,88.41
2022-10-23T19:11:11.210Z,88.70
2022-10-23T19:13:39.497Z,89.22
2022-10-23T19:16:16.269Z,89.57
2022-10-23T19:18:47.009Z,90.11
2022-10-23T19:21:14.067Z,90.58
2022-10-23T19:23:42.649Z,90.94
2022-10-23T19:26:12.014Z,91.26
2022-10-23T19:28:42.652Z,91.45
2022-10-23T19:31:12.783Z,91.34
2022-10-23T19:33:39.255Z,91.13
2022-10-23T19:36:08.026Z,91.06
2022-10-23T19:38:35.463Z,91.28
2022-10-23T19:41:03.809Z,91.39
2022-10-23T19:43:30.269Z,91.59
2022-10-23T19:45:56.812Z,91.81
2022-10-23T19:48:23.210Z,91.75
2022-10-23T19:50:49.711Z,91.93
2022-10-23T19:53:16.914Z,92.36
2022-10-23T19:55:43.395Z,92.35
2022-10-23T19:58:09.904Z,92.58
2022-10-23T20:00:36.515Z,92.50
2022-10-23T20:03:03.206Z,92.62
2022-10-23T20:05:30.023Z,92.83
2022-10-23T20:07:56.476Z,92.72
2022-10-23T20:10:23.016Z,92.97
2022-10-23T20:12:56.585Z,92.67
2022-10-23T20:15:28.990Z,92.73
2022-10-23T20:17:55.394Z,92.66
2022-10-23T20:20:22.000Z,92.22
2022-10-23T20:22:52.054Z,91.75
2022-10-23T20:25:21.271Z,91.28
2022-10-23T20:27:47.701Z,90.46
2022-10-23T20:30:14.156Z,90.02
2022-10-23T20:32:40.624Z,89.79
2022-10-23T20:35:08.021Z,89.28
2022-10-23T20:37:34.421Z,89.20
2022-10-23T20:40:00.863Z,88.81
2022-10-23T20:42:27.285Z,88.49
2022-10-23T20:44:53.722Z,88.43
2022-10-23T20:47:20.282Z,87.96
2022-10-23T20:49:47.789Z,87.46
2022-10-23T20:52:14.260Z,87.14
2022-10-23T20:54:40.744Z,87.19
2022-10-23T20:57:07.250Z,87.21
2022-10-23T20:59:34.206Z,87.33
2022-10-23T21:02:00.813Z,87.27
2022-10-23T21:04:28.134Z,87.02
2022-10-23T21:07:09.944Z,86.92
2022-10-23T21:09:37.874Z,86.64
2022-10-23T21:12:06.328Z,86.59
2022-10-23T21:14:32.798Z,86.63
2022-10-23T21:16:59.225Z,86.24
2022-10-23T21:19:25.724Z,86.18
2022-10-23T21:21:52.547Z,86.02
2022-10-23T21:24:19.004Z,85.81
2022-10-23T21:26:45.945Z,85.85
2022-10-23T21:29:21.029Z,85.73
2022-10-23T21:31:59.301Z,85.91
2022-10-23T21:34:26.336Z,85.90
2022-10-23T21:37:12.005Z,85.86
2022-10-23T21:39:39.439Z,86.07
2022-10-23T21:42:05.966Z,86.22
2022-10-23T21:44:32.820Z,86.26
2022-10-23T21:46:59.406Z,86.46
2022-10-23T21:49:25.933Z,86.47
2022-10-23T21:51:53.069Z,86.67
2022-10-23T21:54:19.495Z,86.61
2022-10-23T21:56:51.429Z,86.88
2022-10-23T21:59:20.696Z,86.99
2022-10-23T22:01:48.602Z,87.11
2022-10-23T22:04:19.320Z,86.81
2022-10-23T22:06:47.722Z,86.88
2022-10-23T22:09:16.479Z,87.21
2022-10-23T22:11:43.381Z,87.07
2022-10-23T22:14:09.954Z,87.11
2022-10-23T22:16:36.590Z,87.52
2022-10-23T22:19:03.263Z,87.41
2022-10-23T22:21:30.340Z,87.36
2022-10-23T22:23:58.515Z,87.31
2022-10-23T22:26:30.773Z,87.58
2022-10-23T22:29:00.109Z,87.71
2022-10-23T22:31:30.242Z,87.92
2022-10-23T22:33:57.371Z,88.32
2022-10-23T22:36:25.011Z,88.65
2022-10-23T22:38:52.211Z,89.27
2022-10-23T22:41:18.754Z,89.72
2022-10-23T22:43:45.187Z,89.95
2022-10-23T22:46:17.119Z,90.60
2022-10-23T22:48:44.889Z,90.67
2022-10-23T22:51:13.669Z,90.96
2022-10-23T22:53:40.170Z,90.94
2022-10-23T22:56:13.088Z,90.92
2022-10-23T22:58:39.782Z,91.12
2022-10-23T23:01:17.307Z,91.26
2022-10-23T23:03:44.494Z,91.09
2022-10-23T23:06:11.290Z,91.20
2022-10-23T23:08:39.722Z,91.22
2022-10-23T23:11:08.548Z,90.95
2022-10-23T23:13:35.437Z,90.87
2022-10-23T23:16:02.859Z,90.88
2022-10-23T23:18:29.638Z,90.69
2022-10-23T23:21:04.144Z,90.68
2022-10-23T23:23:30.931Z,90.38
2022-10-23T23:25:57.714Z,90.60
2022-10-23T23:28:24.451Z,90.38
2022-10-23T23:30:50.890Z,90.29
2022-10-23T23:33:23.149Z,90.56
2022-10-23T23:35:49.579Z,90.68
2022-10-23T23:38:15.985Z,90.57
2022-10-23T23:40:51.034Z,90.77
2022-10-23T23:43:17.814Z,90.78
2022-10-23T23:45:44.434Z,90.92
2022-10-23T23:48:11.007Z,91.46
2022-10-23T23:50:37.454Z,91.53
2022-10-23T23:53:04.162Z,91.62
2022-10-23T23:55:30.613Z,91.48
2022-10-23T23:57:57.079Z,91.69
